Stations météo

réclame
Mon MeteoGroup
Tarfala, Suède (2029): Température de l'air & dewpoint: 15.08.2018 06:00:00 - 21.08.2018 06:00:00 (CEST)Tarfala, Suède (2029): Vitesse du vent & gusts: 15.08.2018 06:00:00 - 21.08.2018 06:00:00 (CEST)Tarfala, Suède (2029): Direction du vent: 15.08.2018 06:00:00 - 21.08.2018 06:00:00 (CEST)Tarfala, Suède (2029): reduced air pressure: 15.08.2018 06:00:00 - 21.08.2018 06:00:00 (CEST)
Date & Time tt [°C] td [°C] ff [km/h] ff [knt] fx [km/h] fx [knt] dd ppp [hPa]
21.08.2018 06:00:00 - - - - - - - -
21.08.2018 05:00:00 2,0 -3,1 24 13 57 31 WNW 1007,5
21.08.2018 04:00:00 1,9 -3,2 26 14 54 29 NW 1007,2
21.08.2018 03:00:00 1,7 -2,1 21 11 51 28 NW 1007,1
21.08.2018 02:00:00 1,7 -1,6 21 12 52 28 NNW 1006,8
21.08.2018 01:00:00 2,3 -1,5 21 12 52 28 NNW 1006,2
21.08.2018 00:00:00 2,5 -1,1 22 12 49 26 NNW 1005,8
20.08.2018 23:00:00 2,5 -0,3 7 4 32 17 N 1005,6
20.08.2018 22:00:00 3,0 0,2 9 5 45 24 W 1005,2
20.08.2018 21:00:00 3,2 0,1 13 7 53 29 NW 1005,1
20.08.2018 20:00:00 3,3 0,0 25 14 66 35 NNW 1004,9
20.08.2018 19:00:00 4,1 -0,7 23 12 66 35 NNW 1004,3
20.08.2018 18:00:00 4,2 -0,4 20 11 74 40 NW 1004,5
20.08.2018 17:00:00 3,9 0,8 35 19 74 40 NW 1004,5
20.08.2018 16:00:00 3,9 0,1 32 18 69 37 NNW 1004,1
20.08.2018 15:00:00 4,2 0,5 27 15 72 39 NNW 1004,0
20.08.2018 14:00:00 4,4 0,7 24 13 72 39 NNW 1003,7
20.08.2018 13:00:00 4,2 0,7 30 16 55 30 NW 1003,3
20.08.2018 12:00:00 4,6 1,4 24 13 54 29 NW 1002,5
20.08.2018 11:00:00 5,1 0,3 34 18 74 40 NW 1001,7
20.08.2018 10:00:00 5,2 0,4 30 16 89 48 NW 1000,9
20.08.2018 09:00:00 5,3 0,7 50 27 89 48 NW 999,0
20.08.2018 08:00:00 4,9 1,2 45 24 74 40 NW 999,2
20.08.2018 07:00:00 5,1 1,8 26 14 74 40 NW 999,0
20.08.2018 06:00:00 4,9 1,6 37 20 59 32 NW 998,4
20.08.2018 05:00:00 4,9 1,7 27 15 67 36 NW 998,6
20.08.2018 04:00:00 5,1 1,8 27 15 69 37 NW 998,1
20.08.2018 03:00:00 5,1 1,9 35 19 69 37 NW 997,7
20.08.2018 02:00:00 5,2 2,5 32 18 87 47 NW 997,2
20.08.2018 01:00:00 4,9 1,7 41 22 87 47 NW 996,9
20.08.2018 00:00:00 4,9 2,1 46 25 85 46 NW 996,3
19.08.2018 23:00:00 5,0 1,8 41 22 77 41 NNW 996,0
19.08.2018 22:00:00 4,4 1,4 32 17 72 39 NNW 996,1
19.08.2018 21:00:00 4,3 1,5 28 15 78 42 NNE 996,1
19.08.2018 20:00:00 4,5 2,5 25 14 78 42 N 995,5
19.08.2018 19:00:00 4,9 1,7 25 13 69 38 N 994,8
19.08.2018 18:00:00 4,9 1,4 20 11 50 27 NE 994,7
19.08.2018 17:00:00 5,2 2,0 17 9 45 24 ESE 994,1
19.08.2018 16:00:00 5,2 1,9 10 6 54 29 E 994,2
19.08.2018 15:00:00 5,9 2,4 16 8 54 29 SSE 993,1
19.08.2018 14:00:00 6,1 2,0 21 11 56 31 S 993,0
19.08.2018 13:00:00 6,1 2,4 14 8 64 35 NW 992,3
19.08.2018 12:00:00 6,4 2,5 12 6 64 35 NW 991,9
19.08.2018 11:00:00 6,7 1,6 13 7 37 20 SW 991,2
19.08.2018 10:00:00 6,3 2,6 12 7 42 23 ENE 991,2
19.08.2018 09:00:00 6,0 2,3 14 8 52 28 E 991,0
19.08.2018 08:00:00 5,6 1,3 16 8 52 28 W 991,1
19.08.2018 07:00:00 5,1 2,3 11 6 40 22 W 991,6
19.08.2018 06:00:00 5,1 2,1 23 13 40 22 NNW 991,4
19.08.2018 05:00:00 5,6 2,2 16 9 29 15 W 991,8
19.08.2018 04:00:00 5,1 3,8 5 3 10 5 NE 992,4
19.08.2018 03:00:00 5,2 4,0 4 2 16 9 S 993,1
19.08.2018 02:00:00 5,2 4,6 8 4 16 9 S 993,6
19.08.2018 01:00:00 5,4 4,5 3 2 16 8 SSE 994,1
19.08.2018 00:00:00 5,6 4,6 4 2 21 11 SW 994,7
18.08.2018 23:00:00 5,7 4,7 10 5 23 12 SE 995,3
18.08.2018 22:00:00 5,7 5,3 12 7 30 16 SSE 995,9
18.08.2018 21:00:00 6,1 5,1 11 6 54 29 SSE 996,8
18.08.2018 20:00:00 6,9 4,0 18 10 54 29 SE 997,6
18.08.2018 19:00:00 6,7 5,5 18 10 50 27 SSE 998,6
18.08.2018 18:00:00 6,8 5,4 25 13 51 27 SSE 999,6
18.08.2018 17:00:00 8,2 4,2 27 15 51 27 SSE 999,8
18.08.2018 16:00:00 8,5 2,9 32 17 49 27 SSE 1000,5
18.08.2018 15:00:00 8,8 2,1 36 19 49 27 SSE 1000,6
18.08.2018 14:00:00 9,2 1,6 23 12 44 24 SSE 1001,4
18.08.2018 13:00:00 8,8 0,7 17 9 31 17 SSE 1002,1
18.08.2018 12:00:00 8,9 0,6 15 8 26 14 SE 1002,5
18.08.2018 11:00:00 8,3 0,8 13 7 38 21 S 1003,2
18.08.2018 10:00:00 7,8 0,0 13 7 54 29 SSW 1003,6
18.08.2018 09:00:00 7,0 -0,5 18 10 68 37 NW 1003,8
18.08.2018 08:00:00 6,2 0,9 26 14 68 37 W 1004,4
18.08.2018 07:00:00 6,2 1,5 20 11 50 27 W 1004,5
18.08.2018 06:00:00 5,8 0,9 14 8 56 30 N 1004,4
18.08.2018 05:00:00 6,0 2,3 20 11 59 32 NW 1004,4
18.08.2018 04:00:00 - - - - 59 32 - -
18.08.2018 03:00:00 6,7 1,6 18 10 35 19 WNW 1003,9
18.08.2018 02:00:00 6,8 2,3 6 3 29 16 WNW 1004,2
18.08.2018 01:00:00 7,1 2,2 9 5 19 10 W 1004,0
18.08.2018 00:00:00 7,6 1,9 4 2 25 14 WSW 1004,1
17.08.2018 23:00:00 7,6 2,3 5 3 31 17 W 1004,1
17.08.2018 22:00:00 7,5 2,6 9 5 44 24 NW 1004,3
17.08.2018 21:00:00 8,1 2,1 20 11 44 24 WNW 1003,9
17.08.2018 20:00:00 8,5 2,9 19 11 42 23 WNW 1003,6
17.08.2018 19:00:00 8,4 3,0 5 3 42 23 NNW 1003,8
17.08.2018 18:00:00 8,4 3,0 20 11 55 30 NW 1003,7
17.08.2018 17:00:00 8,7 4,9 17 9 55 30 WNW 1003,0
17.08.2018 16:00:00 10,1 4,2 27 15 48 26 WNW 1001,6
17.08.2018 15:00:00 10,1 5,3 20 11 47 26 WNW 1001,1
17.08.2018 14:00:00 10,3 5,5 21 11 55 30 WNW 1001,2
17.08.2018 13:00:00 10,0 7,6 30 16 55 30 WNW 1000,5
17.08.2018 12:00:00 10,7 7,4 22 12 52 28 WNW 999,4
17.08.2018 11:00:00 12,1 8,6 13 7 53 29 W 998,4
17.08.2018 10:00:00 10,5 10,2 26 14 58 32 SSE 998,8
17.08.2018 09:00:00 10,1 9,9 36 19 59 32 SSE 998,9
17.08.2018 08:00:00 10,6 10,0 40 22 69 37 SSE 998,8
17.08.2018 07:00:00 10,7 9,9 40 22 69 37 SSE 998,7
17.08.2018 06:00:00 10,6 10,0 37 20 56 30 SSE 999,6
17.08.2018 05:00:00 10,7 10,1 23 13 51 28 SSE 1000,1
17.08.2018 04:00:00 10,5 9,9 29 16 49 26 SSE 1000,7
17.08.2018 03:00:00 10,2 10,0 26 14 45 24 SSE 1001,7
17.08.2018 02:00:00 9,9 9,7 27 14 44 24 SSE 1002,5
17.08.2018 01:00:00 9,8 9,7 29 16 44 24 SSE 1003,6
17.08.2018 00:00:00 9,5 9,4 16 9 29 15 SSE 1004,5
16.08.2018 23:00:00 9,2 9,1 9 5 19 10 S 1005,3
16.08.2018 22:00:00 8,5 8,2 2 1 10 5 ESE 1006,2
16.08.2018 21:00:00 8,0 7,7 5 3 10 5 NW 1006,8
16.08.2018 20:00:00 7,7 7,4 5 3 9 5 NW 1007,5
16.08.2018 19:00:00 7,5 7,1 5 3 10 6 NNW 1007,8
16.08.2018 18:00:00 7,4 7,1 8 4 23 13 WNW 1008,6
16.08.2018 17:00:00 7,4 7,3 5 3 27 15 WNW 1008,8
16.08.2018 16:00:00 7,4 7,3 10 5 27 15 SSW 1008,9
16.08.2018 15:00:00 7,3 7,2 17 9 25 14 SSE 1008,9
16.08.2018 14:00:00 7,5 7,1 6 4 11 6 NW 1008,7
16.08.2018 13:00:00 7,2 6,6 5 3 9 5 NW 1009,0
16.08.2018 12:00:00 6,7 6,6 5 3 9 5 WNW 1009,0
16.08.2018 11:00:00 6,4 6,1 4 2 9 5 W 1009,5
16.08.2018 10:00:00 6,3 6,2 3 2 9 5 NW 1009,8
16.08.2018 09:00:00 6,0 5,7 4 2 10 5 SSW 1010,0
16.08.2018 08:00:00 5,7 5,3 4 2 10 5 SSE 1010,1
16.08.2018 07:00:00 5,6 5,3 4 2 9 5 NNW 1010,3
16.08.2018 06:00:00 5,4 5,0 3 1 9 5 N 1010,6
16.08.2018 05:00:00 5,5 4,5 4 2 7 4 WNW 1010,7
16.08.2018 04:00:00 5,7 4,3 3 1 8 4 NE 1011,0
16.08.2018 03:00:00 5,5 4,1 5 3 8 4 NW 1011,1
16.08.2018 02:00:00 5,8 4,1 2 1 10 5 N 1011,4
16.08.2018 01:00:00 5,9 3,2 5 3 10 5 NW 1011,4
16.08.2018 00:00:00 5,9 3,2 4 2 8 4 WNW 1011,5
15.08.2018 23:00:00 5,8 3,0 5 3 13 7 W 1011,4
15.08.2018 22:00:00 6,8 4,1 3 2 20 11 SSE 1010,8
15.08.2018 21:00:00 7,2 3,6 9 5 20 11 S 1010,4
15.08.2018 20:00:00 7,5 3,4 7 4 19 10 S 1010,2
15.08.2018 19:00:00 7,9 1,7 5 3 9 5 S 1009,9
15.08.2018 18:00:00 8,1 1,9 4 2 10 6 SSW 1009,9
15.08.2018 17:00:00 7,5 2,2 5 3 13 7 S 1010,1
15.08.2018 16:00:00 7,2 2,9 3 2 21 11 S 1010,3
15.08.2018 15:00:00 6,7 2,8 10 5 24 13 SSE 1010,5
15.08.2018 14:00:00 6,0 2,8 16 9 24 13 SSE 1010,7
15.08.2018 13:00:00 5,7 3,0 16 8 27 14 SSE 1010,7
15.08.2018 12:00:00 5,2 3,5 14 8 27 14 SSE 1010,9
15.08.2018 11:00:00 4,6 3,1 11 6 19 10 SE 1011,4
15.08.2018 10:00:00 4,1 2,9 12 7 16 9 SE 1011,7
15.08.2018 09:00:00 3,9 3,0 8 4 14 8 SSE 1011,8
15.08.2018 08:00:00 4,3 2,6 8 4 10 6 SE 1011,6
15.08.2018 07:00:00 3,7 3,1 6 3 8 4 SSE 1012,1
15.08.2018 06:00:00 4,0 1,7 2 1 5 3 W 1012,0

tt = Température de l'air
td = dewpoint
ff = Vitesse du vent
fx = gusts
dd = Direction du vent
ppp = reduced air pressure

stations d'obs. à proximité